createdAt,value
2023-02-22T00:00:48.411Z,101505.38
2023-02-22T00:03:25.289Z,101501.81
2023-02-22T00:06:04.300Z,101496.47
2023-02-22T00:08:33.584Z,101492.34
2023-02-22T00:11:09.058Z,101492.03
2023-02-22T00:13:37.581Z,101485.66
2023-02-22T00:16:05.147Z,101484.94
2023-02-22T00:18:32.170Z,101475.34
2023-02-22T00:21:00.970Z,101480.69
2023-02-22T00:23:30.678Z,101475.56
2023-02-22T00:25:59.573Z,101476.81
2023-02-22T00:28:27.189Z,101481.13
2023-02-22T00:30:55.209Z,101478.44
2023-02-22T00:33:22.737Z,101471.91
2023-02-22T00:35:49.892Z,101472.00
2023-02-22T00:38:19.178Z,101474.19
2023-02-22T00:40:46.218Z,101473.41
2023-02-22T00:43:14.218Z,101471.59
2023-02-22T00:45:41.882Z,101480.69
2023-02-22T00:48:09.624Z,101471.50
2023-02-22T00:50:37.303Z,101477.16
2023-02-22T00:53:05.508Z,101475.78
2023-02-22T00:55:35.480Z,101479.84
2023-02-22T00:58:03.988Z,101477.94
2023-02-22T01:00:40.001Z,101488.19
2023-02-22T01:03:08.973Z,101478.34
2023-02-22T01:05:36.142Z,101475.25
2023-02-22T01:08:09.793Z,101480.81
2023-02-22T01:10:37.985Z,101482.84
2023-02-22T01:13:09.435Z,101480.47
2023-02-22T01:15:39.392Z,101479.63
2023-02-22T01:18:07.388Z,101475.03
2023-02-22T01:20:34.521Z,101465.19
2023-02-22T01:23:03.793Z,101471.28
2023-02-22T01:25:32.355Z,101473.66
2023-02-22T01:28:01.513Z,101471.16
2023-02-22T01:30:33.348Z,101462.94
2023-02-22T01:33:02.009Z,101473.00
2023-02-22T01:35:32.950Z,101461.66
2023-02-22T01:38:00.200Z,101465.09
2023-02-22T01:40:36.937Z,101459.50
2023-02-22T01:43:24.179Z,101457.59
2023-02-22T01:45:58.818Z,101457.16
2023-02-22T01:48:31.795Z,101458.66
2023-02-22T01:51:10.847Z,101455.13
2023-02-22T01:53:45.727Z,101455.44
2023-02-22T01:56:15.299Z,101457.16
2023-02-22T01:58:49.149Z,101453.31
2023-02-22T02:01:20.117Z,101447.19
2023-02-22T02:03:49.346Z,101444.75
2023-02-22T02:06:17.133Z,101448.16
2023-02-22T02:09:11.713Z,101443.66
2023-02-22T02:11:43.490Z,101436.91
2023-02-22T02:14:11.356Z,101435.31
2023-02-22T02:16:45.076Z,101435.88
2023-02-22T02:19:53.100Z,101432.75
2023-02-22T02:22:29.251Z,101431.25
2023-02-22T02:25:31.482Z,101428.88
2023-02-22T02:28:35.509Z,101426.97
2023-02-22T02:31:20.579Z,101426.88
2023-02-22T02:34:02.748Z,101416.16
2023-02-22T02:36:48.803Z,101410.50
2023-02-22T02:39:50.608Z,101410.50
2023-02-22T02:42:23.862Z,101404.19
2023-02-22T02:45:00.297Z,101401.50
2023-02-22T02:47:30.546Z,101399.66
2023-02-22T02:50:10.579Z,101389.09
2023-02-22T02:52:41.734Z,101389.28
2023-02-22T02:55:11.514Z,101390.03
2023-02-22T02:57:41.766Z,101387.25
2023-02-22T03:00:22.826Z,101382.00
2023-02-22T03:03:10.479Z,101383.94
2023-02-22T03:05:53.893Z,101377.09
2023-02-22T03:08:35.135Z,101372.94
2023-02-22T03:11:17.614Z,101365.66
2023-02-22T03:14:33.938Z,101361.25
2023-02-22T03:17:37.380Z,101365.66
2023-02-22T03:20:16.310Z,101371.97
2023-02-22T03:22:55.195Z,101375.19
2023-02-22T03:25:34.279Z,101379.75
2023-02-22T03:28:07.475Z,101371.72
2023-02-22T03:30:43.023Z,101379.03
2023-02-22T03:33:20.514Z,101384.38
2023-02-22T03:35:59.879Z,101386.31
2023-02-22T03:38:30.520Z,101385.03
2023-02-22T03:41:01.458Z,101386.72
2023-02-22T03:43:34.911Z,101385.66
2023-02-22T03:46:06.831Z,101373.06
2023-02-22T03:48:44.323Z,101378.19
2023-02-22T03:51:17.351Z,101372.00
2023-02-22T03:53:48.892Z,101373.94
2023-02-22T03:56:23.624Z,101369.41
2023-02-22T03:58:51.915Z,101359.81
2023-02-22T04:01:20.040Z,101358.09
2023-02-22T04:03:47.130Z,101357.13
2023-02-22T04:06:15.442Z,101360.66
2023-02-22T04:08:44.152Z,101363.44
2023-02-22T04:11:11.723Z,101356.59
2023-02-22T04:13:39.424Z,101360.22
2023-02-22T04:16:06.748Z,101363.03
2023-02-22T04:18:35.510Z,101366.84
2023-02-22T04:21:03.787Z,101378.41
2023-02-22T04:23:37.541Z,101381.22
2023-02-22T04:26:05.223Z,101379.38
2023-02-22T04:28:32.618Z,101375.84
2023-02-22T04:31:25.766Z,101380.13
2023-02-22T04:33:54.796Z,101373.06
2023-02-22T04:36:27.747Z,101386.34
2023-02-22T04:38:55.272Z,101377.44
2023-02-22T04:41:24.431Z,101376.81
2023-02-22T04:43:52.439Z,101376.91
2023-02-22T04:46:22.654Z,101383.34
2023-02-22T04:48:49.981Z,101377.00
2023-02-22T04:51:21.098Z,101378.09
2023-02-22T04:54:08.681Z,101374.97
2023-02-22T04:56:37.805Z,101386.53
2023-02-22T04:59:06.158Z,101384.72
2023-02-22T05:01:34.858Z,101384.63
2023-02-22T05:04:07.576Z,101389.97
2023-02-22T05:06:34.738Z,101392.72
2023-02-22T05:09:01.673Z,101386.66
2023-02-22T05:11:29.192Z,101389.44
2023-02-22T05:13:56.172Z,101386.31
2023-02-22T05:16:23.317Z,101381.81
2023-02-22T05:18:50.722Z,101385.44
2023-02-22T05:21:18.136Z,101383.75
2023-02-22T05:23:45.190Z,101384.91
2023-02-22T05:26:12.302Z,101387.56
2023-02-22T05:28:39.387Z,101391.09
2023-02-22T05:31:07.629Z,101389.50
2023-02-22T05:33:34.650Z,101383.31
2023-02-22T05:36:01.748Z,101389.94
2023-02-22T05:38:29.009Z,101394.41
2023-02-22T05:40:56.988Z,101395.66
2023-02-22T05:43:23.948Z,101395.88
2023-02-22T05:45:50.866Z,101395.88
2023-02-22T05:48:17.710Z,101403.13
2023-02-22T05:50:44.724Z,101405.69
2023-02-22T05:53:11.558Z,101405.03
2023-02-22T05:55:38.605Z,101415.91
2023-02-22T05:58:06.036Z,101412.28
2023-02-22T06:00:33.183Z,101410.78
2023-02-22T06:03:03.909Z,101404.59
2023-02-22T06:05:31.695Z,101406.63
2023-02-22T06:07:59.201Z,101403.94
2023-02-22T06:10:27.211Z,101409.50
2023-02-22T06:12:55.312Z,101407.78
2023-02-22T06:15:23.681Z,101409.69
2023-02-22T06:17:51.754Z,101406.06
2023-02-22T06:20:20.803Z,101409.91
2023-02-22T06:22:49.001Z,101411.63
2023-02-22T06:25:18.750Z,101416.97
2023-02-22T06:27:45.673Z,101416.97
2023-02-22T06:30:16.205Z,101416.97
2023-02-22T06:32:43.139Z,101407.16
2023-02-22T06:35:10.154Z,101415.25
2023-02-22T06:37:38.786Z,101424.22
2023-02-22T06:40:06.137Z,101422.50
2023-02-22T06:42:48.629Z,101425.94
2023-02-22T06:45:17.527Z,101420.59
2023-02-22T06:47:44.412Z,101418.66
2023-02-22T06:50:21.971Z,101411.41
2023-02-22T06:52:49.013Z,101416.53
2023-02-22T06:55:23.653Z,101424.06
2023-02-22T06:57:50.907Z,101422.88
2023-02-22T07:00:20.435Z,101433.06
2023-02-22T07:02:50.654Z,101422.00
2023-02-22T07:05:19.850Z,101422.53
2023-02-22T07:07:48.110Z,101427.47
2023-02-22T07:10:29.109Z,101423.31
2023-02-22T07:12:56.043Z,101427.19
2023-02-22T07:15:24.775Z,101426.53
2023-02-22T07:17:52.725Z,101432.56
2023-02-22T07:20:20.901Z,101440.03
2023-02-22T07:22:48.438Z,101439.63
2023-02-22T07:25:15.365Z,101443.03
2023-02-22T07:27:42.696Z,101437.69
2023-02-22T07:30:31.683Z,101438.75
2023-02-22T07:33:01.132Z,101438.56
2023-02-22T07:35:33.735Z,101440.88
2023-02-22T07:38:00.871Z,101447.06
2023-02-22T07:40:28.489Z,101448.13
2023-02-22T07:43:07.128Z,101450.72
2023-02-22T07:45:35.828Z,101458.16
2023-02-22T07:48:04.582Z,101457.91
2023-02-22T07:50:32.800Z,101450.25
2023-02-22T07:53:02.868Z,101451.00
2023-02-22T07:55:31.290Z,101458.09
2023-02-22T07:58:01.260Z,101460.66
2023-02-22T08:00:32.001Z,101460.03
2023-02-22T08:03:00.671Z,101462.00
2023-02-22T08:05:29.565Z,101464.31
2023-02-22T08:07:57.024Z,101464.31
2023-02-22T08:10:26.527Z,101463.66
2023-02-22T08:12:54.245Z,101473.03
2023-02-22T08:15:29.329Z,101469.91
2023-02-22T08:17:57.964Z,101478.53
2023-02-22T08:20:25.777Z,101479.81
2023-02-22T08:22:54.330Z,101473.81
2023-02-22T08:25:23.358Z,101472.88
2023-02-22T08:27:50.449Z,101467.03
2023-02-22T08:30:22.013Z,101474.06
2023-02-22T08:32:50.701Z,101481.06
2023-02-22T08:35:19.197Z,101479.44
2023-02-22T08:37:49.016Z,101480.09
2023-02-22T08:40:18.301Z,101478.81
2023-02-22T08:42:45.311Z,101472.84
2023-02-22T08:45:13.489Z,101471.44
2023-02-22T08:47:41.014Z,101469.03
2023-02-22T08:50:10.065Z,101463.44
2023-02-22T08:52:36.932Z,101462.28
2023-02-22T08:55:04.005Z,101468.81
2023-02-22T08:57:31.894Z,101460.31
2023-02-22T08:59:58.808Z,101464.69
2023-02-22T09:02:25.704Z,101470.88
2023-02-22T09:04:52.617Z,101463.84
2023-02-22T09:07:19.542Z,101466.13
2023-02-22T09:09:52.432Z,101472.31
2023-02-22T09:12:19.349Z,101467.88
2023-02-22T09:14:46.355Z,101460.16
2023-02-22T09:17:13.325Z,101470.69
2023-02-22T09:19:40.261Z,101466.28
2023-02-22T09:22:07.374Z,101466.47
2023-02-22T09:24:34.661Z,101468.03
2023-02-22T09:27:04.449Z,101459.41
2023-02-22T09:29:31.766Z,101464.84
2023-02-22T09:31:58.789Z,101461.47
2023-02-22T09:34:29.855Z,101467.47
2023-02-22T09:36:57.782Z,101469.38
2023-02-22T09:39:25.671Z,101471.88
2023-02-22T09:42:04.347Z,101473.97
2023-02-22T09:44:44.012Z,101465.34
2023-02-22T09:47:32.509Z,101471.78
2023-02-22T09:50:05.582Z,101477.91
2023-02-22T09:52:39.712Z,101476.38
2023-02-22T09:55:10.211Z,101482.19
2023-02-22T09:57:43.120Z,101487.47
2023-02-22T10:00:20.294Z,101479.03
2023-02-22T10:03:06.982Z,101467.59
2023-02-22T10:05:40.072Z,101481.31
2023-02-22T10:08:13.604Z,101478.44
2023-02-22T10:10:47.075Z,101478.66
2023-02-22T10:13:22.935Z,101473.75
2023-02-22T10:16:21.140Z,101471.19
2023-02-22T10:19:08.369Z,101480.72
2023-02-22T10:22:05.086Z,101472.50
2023-02-22T10:24:53.203Z,101468.13
2023-02-22T10:27:29.818Z,101476.97
2023-02-22T10:30:23.383Z,101469.22
2023-02-22T10:33:15.443Z,101473.38
2023-02-22T10:35:46.917Z,101473.25
2023-02-22T10:38:23.630Z,101473.59
2023-02-22T10:41:11.007Z,101477.59
2023-02-22T10:43:41.459Z,101477.56
2023-02-22T10:46:13.434Z,101472.88
2023-02-22T10:48:42.883Z,101475.25
2023-02-22T10:51:10.372Z,101484.41
2023-02-22T10:53:38.621Z,101475.66
2023-02-22T10:56:08.657Z,101483.44
2023-02-22T10:58:54.321Z,101480.41
2023-02-22T11:01:29.334Z,101482.38
2023-02-22T11:04:16.877Z,101484.13
2023-02-22T11:06:49.905Z,101472.38
2023-02-22T11:09:24.988Z,101473.84
2023-02-22T11:12:09.913Z,101472.00
2023-02-22T11:14:36.800Z,101480.09
2023-02-22T11:17:08.836Z,101477.06
2023-02-22T11:19:38.502Z,101465.91
2023-02-22T11:22:05.625Z,101469.94
2023-02-22T11:24:48.344Z,101469.56
2023-02-22T11:27:33.849Z,101466.69
2023-02-22T11:30:22.578Z,101464.50
2023-02-22T11:32:57.748Z,101462.91
2023-02-22T11:35:33.620Z,101464.59
2023-02-22T11:38:31.067Z,101463.03
2023-02-22T11:41:16.078Z,101464.06
2023-02-22T11:43:45.217Z,101450.16
2023-02-22T11:46:16.699Z,101449.50
2023-02-22T11:49:07.915Z,101454.66
2023-02-22T11:51:35.157Z,101448.31
2023-02-22T11:54:10.993Z,101445.56
2023-02-22T11:56:47.157Z,101447.19
2023-02-22T12:00:15.633Z,101443.25
2023-02-22T12:02:56.412Z,101438.13
2023-02-22T12:05:59.791Z,101430.13
2023-02-22T12:08:41.250Z,101427.84
2023-02-22T12:11:28.595Z,101425.44
2023-02-22T12:14:31.957Z,101429.78
2023-02-22T12:17:26.183Z,101431.44
2023-02-22T12:20:22.219Z,101421.09
2023-02-22T12:23:02.263Z,101420.00
2023-02-22T12:25:33.914Z,101418.09
2023-02-22T12:28:24.834Z,101405.16
2023-02-22T12:31:18.961Z,101408.50
2023-02-22T12:33:55.602Z,101395.94
2023-02-22T12:36:29.110Z,101392.53
2023-02-22T12:39:07.252Z,101387.31
2023-02-22T12:41:41.015Z,101387.53
2023-02-22T12:44:10.194Z,101392.53
2023-02-22T12:46:44.535Z,101395.91
2023-02-22T12:49:22.683Z,101385.72
2023-02-22T12:52:22.295Z,101399.09
2023-02-22T12:55:18.004Z,101397.88
2023-02-22T12:58:16.054Z,101379.13
2023-02-22T13:00:57.596Z,101381.72
2023-02-22T13:03:42.267Z,101392.41
2023-02-22T13:06:27.472Z,101380.81
2023-02-22T13:09:09.861Z,101382.03
2023-02-22T13:12:09.918Z,101386.84
2023-02-22T13:14:59.104Z,101374.53
2023-02-22T13:17:38.285Z,101366.78
2023-02-22T13:20:25.777Z,101368.19
2023-02-22T13:23:15.529Z,101364.59
2023-02-22T13:25:58.878Z,101366.06
2023-02-22T13:29:17.058Z,101359.44
2023-02-22T13:32:11.775Z,101352.16
2023-02-22T13:34:54.436Z,101356.00
2023-02-22T13:37:21.438Z,101347.59
2023-02-22T13:40:06.932Z,101353.38
2023-02-22T13:42:48.778Z,101349.34
2023-02-22T13:45:18.952Z,101342.25
2023-02-22T13:47:54.611Z,101337.47
2023-02-22T13:50:35.679Z,101333.69
2023-02-22T13:53:11.905Z,101323.50
2023-02-22T13:55:42.896Z,101326.50
2023-02-22T13:58:12.742Z,101316.47
2023-02-22T14:00:42.406Z,101317.97
2023-02-22T14:03:15.045Z,101325.66
2023-02-22T14:05:42.612Z,101321.91
2023-02-22T14:08:33.968Z,101315.59
2023-02-22T14:11:12.769Z,101314.59
2023-02-22T14:13:57.090Z,101312.03
2023-02-22T14:16:28.916Z,101316.03
2023-02-22T14:19:17.962Z,101303.44
2023-02-22T14:22:02.324Z,101307.44
2023-02-22T14:24:48.708Z,101300.16
2023-02-22T14:27:17.661Z,101295.53
2023-02-22T14:29:54.318Z,101298.47
2023-02-22T14:32:30.548Z,101299.28
2023-02-22T14:35:01.219Z,101292.41
2023-02-22T14:37:33.613Z,101287.78
2023-02-22T14:40:13.330Z,101303.41
2023-02-22T14:42:47.682Z,101295.81
2023-02-22T14:45:29.753Z,101297.25
2023-02-22T14:48:25.095Z,101297.03
2023-02-22T14:51:08.823Z,101295.53
2023-02-22T14:54:03.888Z,101295.06
2023-02-22T14:56:49.309Z,101297.75
2023-02-22T14:59:25.226Z,101300.25
2023-02-22T15:02:13.537Z,101296.28
2023-02-22T15:04:44.132Z,101296.00
2023-02-22T15:07:40.262Z,101288.81
2023-02-22T15:10:17.953Z,101292.69
2023-02-22T15:12:52.409Z,101287.38
2023-02-22T15:15:22.893Z,101288.81
2023-02-22T15:17:58.059Z,101295.44
2023-02-22T15:20:26.066Z,101293.50
2023-02-22T15:23:00.275Z,101286.41
2023-02-22T15:25:31.315Z,101299.78
2023-02-22T15:28:05.507Z,101291.28
2023-02-22T15:30:34.329Z,101295.06
2023-02-22T15:33:24.330Z,101295.31
2023-02-22T15:35:58.309Z,101292.03
2023-02-22T15:38:30.716Z,101285.22
2023-02-22T15:41:05.637Z,101287.41
2023-02-22T15:43:32.867Z,101292.75
2023-02-22T15:46:00.960Z,101289.22
2023-02-22T15:48:28.787Z,101292.00
2023-02-22T15:51:04.852Z,101293.59
2023-02-22T15:53:40.220Z,101292.41
2023-02-22T15:56:14.395Z,101290.22
2023-02-22T15:58:44.296Z,101290.09
2023-02-22T16:01:19.307Z,101292.38
2023-02-22T16:03:50.197Z,101296.69
2023-02-22T16:06:40.458Z,101299.22
2023-02-22T16:09:26.185Z,101297.44
2023-02-22T16:12:30.683Z,101294.31
2023-02-22T16:14:59.181Z,101300.06
2023-02-22T16:17:35.768Z,101299.94
2023-02-22T16:20:11.796Z,101290.06
2023-02-22T16:22:39.895Z,101289.56
2023-02-22T16:25:28.325Z,101283.97
2023-02-22T16:28:03.256Z,101297.19
2023-02-22T16:30:39.552Z,101284.16
2023-02-22T16:33:13.702Z,101290.47
2023-02-22T16:35:41.222Z,101284.09
2023-02-22T16:38:17.032Z,101280.19
2023-02-22T16:40:53.985Z,101281.63
2023-02-22T16:43:27.650Z,101288.53
2023-02-22T16:45:54.531Z,101288.25
2023-02-22T16:48:26.695Z,101285.06
2023-02-22T16:50:56.423Z,101289.41
2023-02-22T16:53:26.037Z,101282.06
2023-02-22T16:56:04.178Z,101295.47
2023-02-22T16:58:36.931Z,101291.50
2023-02-22T17:01:04.079Z,101299.59
2023-02-22T17:03:30.996Z,101308.09
2023-02-22T17:05:58.133Z,101308.06
2023-02-22T17:08:25.262Z,101311.00
2023-02-22T17:10:56.835Z,101309.06
2023-02-22T17:13:27.266Z,101320.00
2023-02-22T17:15:55.095Z,101317.22
2023-02-22T17:18:24.133Z,101309.13
2023-02-22T17:20:52.552Z,101317.91
2023-02-22T17:23:20.246Z,101316.72
2023-02-22T17:25:59.352Z,101315.34
2023-02-22T17:28:26.950Z,101323.06
2023-02-22T17:30:56.004Z,101322.41
2023-02-22T17:33:27.755Z,101321.09
2023-02-22T17:35:58.925Z,101325.41
2023-02-22T17:38:29.245Z,101326.06
2023-02-22T17:40:57.644Z,101326.69
2023-02-22T17:43:25.362Z,101333.78
2023-02-22T17:45:53.962Z,101339.31
2023-02-22T17:48:23.892Z,101342.53
2023-02-22T17:50:51.595Z,101340.59
2023-02-22T17:53:21.865Z,101342.72
2023-02-22T17:55:48.823Z,101343.28
2023-02-22T17:58:16.747Z,101345.53
2023-02-22T18:00:47.535Z,101353.84
2023-02-22T18:03:19.920Z,101347.03
2023-02-22T18:05:50.007Z,101349.19
2023-02-22T18:08:16.974Z,101357.09
2023-02-22T18:10:44.029Z,101352.59
2023-02-22T18:13:18.894Z,101361.13
2023-02-22T18:15:46.978Z,101363.75
2023-02-22T18:18:15.031Z,101363.94
2023-02-22T18:20:44.396Z,101361.16
2023-02-22T18:23:16.849Z,101366.84
2023-02-22T18:26:07.608Z,101366.97
2023-02-22T18:28:36.939Z,101357.88
2023-02-22T18:31:15.884Z,101357.00
2023-02-22T18:33:44.132Z,101364.69
2023-02-22T18:36:11.850Z,101369.78
2023-02-22T18:38:43.296Z,101369.09
2023-02-22T18:41:16.115Z,101365.41
2023-02-22T18:43:43.875Z,101364.78
2023-02-22T18:46:19.321Z,101353.84
2023-02-22T18:48:47.793Z,101353.84
2023-02-22T18:51:17.414Z,101352.16
2023-02-22T18:53:47.072Z,101359.72
2023-02-22T18:56:22.025Z,101360.47
2023-02-22T18:58:53.999Z,101359.75
2023-02-22T19:01:22.413Z,101364.69
2023-02-22T19:03:51.937Z,101357.84
2023-02-22T19:06:25.160Z,101358.28
2023-02-22T19:08:52.333Z,101353.59
2023-02-22T19:11:24.367Z,101362.44
2023-02-22T19:13:54.096Z,101361.47
2023-02-22T19:16:22.907Z,101363.66
2023-02-22T19:18:52.662Z,101369.25
2023-02-22T19:21:20.505Z,101366.66
2023-02-22T19:23:48.757Z,101364.78
2023-02-22T19:26:24.153Z,101368.88
2023-02-22T19:28:54.315Z,101362.63
2023-02-22T19:31:23.777Z,101363.47
2023-02-22T19:33:53.945Z,101358.53
2023-02-22T19:36:25.609Z,101362.34
2023-02-22T19:38:52.660Z,101365.78
2023-02-22T19:41:22.172Z,101371.50
2023-02-22T19:43:51.164Z,101369.34
2023-02-22T19:46:19.081Z,101361.44
2023-02-22T19:48:46.254Z,101363.88
2023-02-22T19:51:16.168Z,101363.78
2023-02-22T19:53:44.330Z,101356.47
2023-02-22T19:56:17.361Z,101356.47
2023-02-22T19:58:46.837Z,101343.81
2023-02-22T20:01:23.357Z,101353.56
2023-02-22T20:03:56.466Z,101354.53
2023-02-22T20:06:34.993Z,101350.03
2023-02-22T20:09:02.758Z,101351.84
2023-02-22T20:11:30.052Z,101350.13
2023-02-22T20:13:57.217Z,101351.09
2023-02-22T20:16:24.450Z,101349.38
2023-02-22T20:18:51.766Z,101349.38
2023-02-22T20:21:36.747Z,101341.34
2023-02-22T20:24:05.625Z,101341.69
2023-02-22T20:26:34.552Z,101352.53
2023-02-22T20:29:04.196Z,101349.00
2023-02-22T20:31:32.004Z,101349.88
2023-02-22T20:34:00.375Z,101351.59
2023-02-22T20:36:30.042Z,101348.75
2023-02-22T20:38:59.233Z,101353.25
2023-02-22T20:41:32.372Z,101346.22
2023-02-22T20:44:01.134Z,101349.00
2023-02-22T20:46:31.742Z,101346.44
2023-02-22T20:49:00.892Z,101349.34
2023-02-22T20:51:28.995Z,101347.03
2023-02-22T20:53:59.921Z,101351.28
2023-02-22T20:56:29.031Z,101349.81
2023-02-22T20:58:57.609Z,101351.63
2023-02-22T21:01:24.717Z,101349.69
2023-02-22T21:03:52.596Z,101355.16
2023-02-22T21:06:22.143Z,101355.16
2023-02-22T21:08:55.508Z,101357.84
2023-02-22T21:11:24.111Z,101357.84
2023-02-22T21:13:52.626Z,101351.00
2023-02-22T21:16:26.187Z,101352.84
2023-02-22T21:18:59.219Z,101355.50
2023-02-22T21:21:28.044Z,101359.16
2023-02-22T21:23:57.355Z,101356.59
2023-02-22T21:26:29.695Z,101358.28
2023-02-22T21:29:02.345Z,101354.03
2023-02-22T21:31:29.926Z,101345.25
2023-02-22T21:34:02.267Z,101347.41
2023-02-22T21:36:29.825Z,101351.19
2023-02-22T21:38:59.483Z,101352.16
2023-02-22T21:41:29.240Z,101346.16
2023-02-22T21:43:57.916Z,101340.69
2023-02-22T21:46:26.673Z,101336.31
2023-02-22T21:48:53.912Z,101336.31
2023-02-22T21:51:25.440Z,101331.69
2023-02-22T21:53:54.561Z,101327.28
2023-02-22T21:56:27.430Z,101338.13
2023-02-22T21:58:59.973Z,101330.31
2023-02-22T22:01:32.107Z,101319.84
2023-02-22T22:04:01.055Z,101315.53
2023-02-22T22:06:29.953Z,101316.00
2023-02-22T22:08:58.004Z,101310.63
2023-02-22T22:11:25.492Z,101308.69
2023-02-22T22:13:57.727Z,101307.00
2023-02-22T22:16:28.036Z,101308.69
2023-02-22T22:18:55.654Z,101309.53
2023-02-22T22:21:24.373Z,101308.69
2023-02-22T22:23:54.545Z,101303.13
2023-02-22T22:26:24.749Z,101300.53
2023-02-22T22:28:58.568Z,101297.75
2023-02-22T22:31:26.993Z,101288.97
2023-02-22T22:33:56.329Z,101292.63
2023-02-22T22:36:25.259Z,101289.22
2023-02-22T22:38:52.981Z,101282.38
2023-02-22T22:41:22.093Z,101280.44
2023-02-22T22:43:49.120Z,101273.59
2023-02-22T22:46:18.143Z,101271.88
2023-02-22T22:48:47.419Z,101265.69
2023-02-22T22:51:18.779Z,101264.84
2023-02-22T22:53:47.760Z,101259.69
2023-02-22T22:56:17.937Z,101265.06
2023-02-22T22:58:54.827Z,101255.44
2023-02-22T23:01:28.133Z,101253.13
2023-02-22T23:03:59.852Z,101241.75
2023-02-22T23:06:33.988Z,101245.44
2023-02-22T23:09:11.868Z,101237.50
2023-02-22T23:11:45.114Z,101243.81
2023-02-22T23:14:15.112Z,101239.41
2023-02-22T23:16:43.030Z,101244.06
2023-02-22T23:19:10.156Z,101243.28
2023-02-22T23:21:38.898Z,101246.09
2023-02-22T23:24:07.055Z,101236.47
2023-02-22T23:26:34.519Z,101238.38
2023-02-22T23:29:02.624Z,101238.63
2023-02-22T23:31:29.974Z,101238.63
2023-02-22T23:33:59.049Z,101233.50
2023-02-22T23:36:26.907Z,101231.78
2023-02-22T23:38:54.394Z,101227.50
2023-02-22T23:41:25.159Z,101222.16
2023-02-22T23:43:52.300Z,101225.69
2023-02-22T23:46:19.658Z,101215.97
2023-02-22T23:48:52.586Z,101212.53
2023-02-22T23:51:26.066Z,101209.59
2023-02-22T23:53:55.909Z,101211.28
2023-02-22T23:56:26.600Z,101210.31
2023-02-22T23:58:57.537Z,101206.16
